sensor_id;sensor_type;location;lat;lon;timestamp;pressure;altitude;pressure_sealevel;temperature;humidity
24336;BME280;33098;52.400;16.880;2023-11-21T00:02:26;99973.47;;;9.10;100.00
24336;BME280;33098;52.400;16.880;2023-11-21T00:04:53;99979.84;;;9.08;100.00
24336;BME280;33098;52.400;16.880;2023-11-21T00:07:20;99983.02;;;9.04;100.00
24336;BME280;33098;52.400;16.880;2023-11-21T00:09:47;99984.83;;;8.94;100.00
24336;BME280;33098;52.400;16.880;2023-11-21T00:12:14;99982.20;;;8.89;100.00
24336;BME280;33098;52.400;16.880;2023-11-21T00:14:41;99982.48;;;8.86;100.00
24336;BME280;33098;52.400;16.880;2023-11-21T00:17:07;99980.71;;;8.79;100.00
24336;BME280;33098;52.400;16.880;2023-11-21T00:19:33;99977.51;;;8.68;100.00
24336;BME280;33098;52.400;16.880;2023-11-21T00:22:01;99979.34;;;8.62;100.00
24336;BME280;33098;52.400;16.880;2023-11-21T00:24:27;99978.02;;;8.54;100.00
24336;BME280;33098;52.400;16.880;2023-11-21T00:26:53;99983.55;;;8.52;100.00
24336;BME280;33098;52.400;16.880;2023-11-21T00:29:20;99989.81;;;8.55;100.00
24336;BME280;33098;52.400;16.880;2023-11-21T00:31:46;99996.48;;;8.58;100.00
24336;BME280;33098;52.400;16.880;2023-11-21T00:34:13;100001.55;;;8.61;100.00
24336;BME280;33098;52.400;16.880;2023-11-21T00:36:39;100001.66;;;8.66;100.00
24336;BME280;33098;52.400;16.880;2023-11-21T00:39:06;100001.90;;;8.61;100.00
24336;BME280;33098;52.400;16.880;2023-11-21T00:41:34;100005.64;;;8.54;100.00
24336;BME280;33098;52.400;16.880;2023-11-21T00:44:02;100002.26;;;8.54;100.00
24336;BME280;33098;52.400;16.880;2023-11-21T00:46:29;100006.05;;;8.55;100.00
24336;BME280;33098;52.400;16.880;2023-11-21T00:48:56;100005.27;;;8.56;100.00
24336;BME280;33098;52.400;16.880;2023-11-21T00:51:22;100013.23;;;8.59;100.00
24336;BME280;33098;52.400;16.880;2023-11-21T00:53:49;100014.83;;;8.59;100.00
24336;BME280;33098;52.400;16.880;2023-11-21T00:56:15;100014.84;;;8.56;100.00
24336;BME280;33098;52.400;16.880;2023-11-21T00:58:42;100013.91;;;8.54;100.00
24336;BME280;33098;52.400;16.880;2023-11-21T01:01:13;100008.27;;;8.54;100.00
24336;BME280;33098;52.400;16.880;2023-11-21T01:03:39;100007.17;;;8.50;100.00
24336;BME280;33098;52.400;16.880;2023-11-21T01:06:06;100005.51;;;8.47;100.00
24336;BME280;33098;52.400;16.880;2023-11-21T01:08:33;100008.19;;;8.41;100.00
24336;BME280;33098;52.400;16.880;2023-11-21T01:10:59;100003.93;;;8.36;100.00
24336;BME280;33098;52.400;16.880;2023-11-21T01:13:26;100007.68;;;8.29;100.00
24336;BME280;33098;52.400;16.880;2023-11-21T01:15:56;100020.77;;;8.22;100.00
24336;BME280;33098;52.400;16.880;2023-11-21T01:18:22;100019.80;;;8.21;100.00
24336;BME280;33098;52.400;16.880;2023-11-21T01:20:51;100019.98;;;8.21;100.00
24336;BME280;33098;52.400;16.880;2023-11-21T01:23:19;100022.38;;;8.22;100.00
24336;BME280;33098;52.400;16.880;2023-11-21T01:25:46;100025.33;;;8.20;100.00
24336;BME280;33098;52.400;16.880;2023-11-21T01:28:12;100031.02;;;8.15;100.00
24336;BME280;33098;52.400;16.880;2023-11-21T01:30:39;100033.42;;;8.11;100.00
24336;BME280;33098;52.400;16.880;2023-11-21T01:33:05;100034.89;;;8.10;100.00
24336;BME280;33098;52.400;16.880;2023-11-21T01:35:31;100034.80;;;8.12;100.00
24336;BME280;33098;52.400;16.880;2023-11-21T01:37:58;100038.52;;;8.12;100.00
24336;BME280;33098;52.400;16.880;2023-11-21T01:40:24;100036.98;;;8.09;100.00
24336;BME280;33098;52.400;16.880;2023-11-21T01:42:52;100040.25;;;7.97;100.00
24336;BME280;33098;52.400;16.880;2023-11-21T01:45:19;100040.52;;;7.84;100.00
24336;BME280;33098;52.400;16.880;2023-11-21T01:47:46;100042.68;;;7.86;100.00
24336;BME280;33098;52.400;16.880;2023-11-21T01:50:16;100035.20;;;7.85;100.00
24336;BME280;33098;52.400;16.880;2023-11-21T01:52:46;100037.39;;;7.84;100.00
24336;BME280;33098;52.400;16.880;2023-11-21T01:55:15;100037.46;;;7.85;100.00
24336;BME280;33098;52.400;16.880;2023-11-21T01:57:45;100043.98;;;7.90;100.00
24336;BME280;33098;52.400;16.880;2023-11-21T02:00:12;100042.52;;;7.93;100.00
24336;BME280;33098;52.400;16.880;2023-11-21T02:02:43;100045.13;;;7.96;100.00
24336;BME280;33098;52.400;16.880;2023-11-21T02:05:13;100041.27;;;7.93;100.00
24336;BME280;33098;52.400;16.880;2023-11-21T02:07:44;100047.50;;;7.83;100.00
24336;BME280;33098;52.400;16.880;2023-11-21T02:10:12;100047.05;;;7.68;100.00
24336;BME280;33098;52.400;16.880;2023-11-21T02:12:41;100049.88;;;7.55;100.00
24336;BME280;33098;52.400;16.880;2023-11-21T02:15:09;100055.65;;;7.58;100.00
24336;BME280;33098;52.400;16.880;2023-11-21T02:17:41;100060.83;;;7.58;100.00
24336;BME280;33098;52.400;16.880;2023-11-21T02:20:13;100064.05;;;7.50;100.00
24336;BME280;33098;52.400;16.880;2023-11-21T02:22:43;100071.60;;;7.57;100.00
24336;BME280;33098;52.400;16.880;2023-11-21T02:25:09;100069.66;;;7.62;100.00
24336;BME280;33098;52.400;16.880;2023-11-21T02:27:36;100073.48;;;7.61;100.00
24336;BME280;33098;52.400;16.880;2023-11-21T02:30:03;100072.23;;;7.49;100.00
24336;BME280;33098;52.400;16.880;2023-11-21T02:32:30;100075.52;;;7.45;100.00
24336;BME280;33098;52.400;16.880;2023-11-21T02:34:58;100083.79;;;7.52;100.00
24336;BME280;33098;52.400;16.880;2023-11-21T02:37:27;100088.76;;;7.55;100.00
24336;BME280;33098;52.400;16.880;2023-11-21T02:39:54;100085.37;;;7.55;100.00
24336;BME280;33098;52.400;16.880;2023-11-21T02:42:20;100087.80;;;7.48;100.00
24336;BME280;33098;52.400;16.880;2023-11-21T02:44:47;100094.64;;;7.47;100.00
24336;BME280;33098;52.400;16.880;2023-11-21T02:47:13;100094.47;;;7.51;100.00
24336;BME280;33098;52.400;16.880;2023-11-21T02:49:40;100095.89;;;7.54;100.00
24336;BME280;33098;52.400;16.880;2023-11-21T02:52:07;100103.86;;;7.58;100.00
24336;BME280;33098;52.400;16.880;2023-11-21T02:54:33;100102.67;;;7.58;100.00
24336;BME280;33098;52.400;16.880;2023-11-21T02:57:03;100101.58;;;7.51;100.00
24336;BME280;33098;52.400;16.880;2023-11-21T02:59:30;100100.02;;;7.48;100.00
24336;BME280;33098;52.400;16.880;2023-11-21T03:01:56;100103.20;;;7.38;100.00
24336;BME280;33098;52.400;16.880;2023-11-21T03:04:23;100100.61;;;7.37;100.00
24336;BME280;33098;52.400;16.880;2023-11-21T03:06:50;100097.52;;;7.39;100.00
24336;BME280;33098;52.400;16.880;2023-11-21T03:09:16;100093.59;;;7.39;100.00
24336;BME280;33098;52.400;16.880;2023-11-21T03:11:43;100093.98;;;7.38;100.00
24336;BME280;33098;52.400;16.880;2023-11-21T03:14:09;100099.67;;;7.35;100.00
24336;BME280;33098;52.400;16.880;2023-11-21T03:16:37;100104.52;;;7.29;100.00
24336;BME280;33098;52.400;16.880;2023-11-21T03:19:04;100109.39;;;7.25;100.00
24336;BME280;33098;52.400;16.880;2023-11-21T03:21:31;100112.78;;;7.24;100.00
24336;BME280;33098;52.400;16.880;2023-11-21T03:23:57;100115.80;;;7.27;100.00
24336;BME280;33098;52.400;16.880;2023-11-21T03:26:26;100122.32;;;7.24;100.00
24336;BME280;33098;52.400;16.880;2023-11-21T03:28:52;100123.87;;;7.22;100.00
24336;BME280;33098;52.400;16.880;2023-11-21T03:31:19;100127.14;;;7.18;100.00
24336;BME280;33098;52.400;16.880;2023-11-21T03:33:46;100127.42;;;7.14;100.00
24336;BME280;33098;52.400;16.880;2023-11-21T03:36:13;100130.54;;;7.13;100.00
24336;BME280;33098;52.400;16.880;2023-11-21T03:38:41;100131.27;;;7.08;100.00
24336;BME280;33098;52.400;16.880;2023-11-21T03:41:08;100137.91;;;7.00;100.00
24336;BME280;33098;52.400;16.880;2023-11-21T03:43:36;100142.23;;;6.99;100.00
24336;BME280;33098;52.400;16.880;2023-11-21T03:46:03;100143.23;;;6.97;100.00
24336;BME280;33098;52.400;16.880;2023-11-21T03:48:29;100144.83;;;6.97;100.00
24336;BME280;33098;52.400;16.880;2023-11-21T03:50:56;100145.40;;;6.94;100.00
24336;BME280;33098;52.400;16.880;2023-11-21T03:53:22;100144.89;;;6.91;100.00
24336;BME280;33098;52.400;16.880;2023-11-21T03:55:49;100144.08;;;6.82;100.00
24336;BME280;33098;52.400;16.880;2023-11-21T03:58:16;100142.20;;;6.74;100.00
24336;BME280;33098;52.400;16.880;2023-11-21T04:00:42;100142.77;;;6.70;100.00
24336;BME280;33098;52.400;16.880;2023-11-21T04:03:09;100145.25;;;6.67;100.00
24336;BME280;33098;52.400;16.880;2023-11-21T04:05:35;100143.67;;;6.64;100.00
24336;BME280;33098;52.400;16.880;2023-11-21T04:08:02;100140.63;;;6.57;100.00
24336;BME280;33098;52.400;16.880;2023-11-21T04:10:28;100137.52;;;6.51;100.00
24336;BME280;33098;52.400;16.880;2023-11-21T04:12:55;100144.08;;;6.48;100.00
24336;BME280;33098;52.400;16.880;2023-11-21T04:15:21;100141.98;;;6.45;100.00
24336;BME280;33098;52.400;16.880;2023-11-21T04:17:48;100145.94;;;6.47;100.00
24336;BME280;33098;52.400;16.880;2023-11-21T04:20:14;100143.98;;;6.44;100.00
24336;BME280;33098;52.400;16.880;2023-11-21T04:22:41;100145.79;;;6.43;100.00
24336;BME280;33098;52.400;16.880;2023-11-21T04:25:10;100145.69;;;6.39;100.00
24336;BME280;33098;52.400;16.880;2023-11-21T04:27:40;100147.02;;;6.41;100.00
24336;BME280;33098;52.400;16.880;2023-11-21T04:30:06;100154.73;;;6.38;100.00
24336;BME280;33098;52.400;16.880;2023-11-21T04:32:33;100154.77;;;6.35;100.00
24336;BME280;33098;52.400;16.880;2023-11-21T04:34:59;100164.52;;;6.34;100.00
24336;BME280;33098;52.400;16.880;2023-11-21T04:37:26;100169.36;;;6.31;100.00
24336;BME280;33098;52.400;16.880;2023-11-21T04:39:52;100173.58;;;6.31;100.00
24336;BME280;33098;52.400;16.880;2023-11-21T04:42:19;100180.56;;;6.29;100.00
24336;BME280;33098;52.400;16.880;2023-11-21T04:44:45;100183.31;;;6.22;100.00
24336;BME280;33098;52.400;16.880;2023-11-21T04:47:12;100184.52;;;6.16;100.00
24336;BME280;33098;52.400;16.880;2023-11-21T04:49:41;100189.14;;;6.11;100.00
24336;BME280;33098;52.400;16.880;2023-11-21T04:52:08;100195.67;;;6.08;100.00
24336;BME280;33098;52.400;16.880;2023-11-21T04:54:35;100202.67;;;6.08;100.00
24336;BME280;33098;52.400;16.880;2023-11-21T04:57:02;100204.45;;;6.05;100.00
24336;BME280;33098;52.400;16.880;2023-11-21T04:59:28;100208.99;;;6.00;100.00
24336;BME280;33098;52.400;16.880;2023-11-21T05:01:55;100213.53;;;5.98;100.00
24336;BME280;33098;52.400;16.880;2023-11-21T05:04:21;100213.79;;;5.93;100.00
24336;BME280;33098;52.400;16.880;2023-11-21T05:06:51;100219.02;;;5.94;100.00
24336;BME280;33098;52.400;16.880;2023-11-21T05:09:17;100218.96;;;5.95;100.00
24336;BME280;33098;52.400;16.880;2023-11-21T05:11:44;100227.27;;;5.95;100.00
24336;BME280;33098;52.400;16.880;2023-11-21T05:14:10;100230.02;;;5.90;100.00
24336;BME280;33098;52.400;16.880;2023-11-21T05:16:36;100233.77;;;5.89;100.00
24336;BME280;33098;52.400;16.880;2023-11-21T05:19:04;100237.00;;;5.85;100.00
24336;BME280;33098;52.400;16.880;2023-11-21T05:21:31;100237.98;;;5.81;100.00
24336;BME280;33098;52.400;16.880;2023-11-21T05:23:58;100240.65;;;5.81;100.00
24336;BME280;33098;52.400;16.880;2023-11-21T05:26:25;100243.56;;;5.76;100.00
24336;BME280;33098;52.400;16.880;2023-11-21T05:28:52;100249.46;;;5.75;100.00
24336;BME280;33098;52.400;16.880;2023-11-21T05:31:18;100251.84;;;5.73;100.00
24336;BME280;33098;52.400;16.880;2023-11-21T05:33:44;100259.16;;;5.74;100.00
24336;BME280;33098;52.400;16.880;2023-11-21T05:36:11;100260.89;;;5.75;100.00
24336;BME280;33098;52.400;16.880;2023-11-21T05:38:37;100260.45;;;5.70;100.00
24336;BME280;33098;52.400;16.880;2023-11-21T05:41:04;100263.08;;;5.68;100.00
24336;BME280;33098;52.400;16.880;2023-11-21T05:43:30;100259.59;;;5.65;100.00
24336;BME280;33098;52.400;16.880;2023-11-21T05:45:58;100258.75;;;5.61;100.00
24336;BME280;33098;52.400;16.880;2023-11-21T05:48:25;100259.41;;;5.59;100.00
24336;BME280;33098;52.400;16.880;2023-11-21T05:50:52;100259.70;;;5.57;100.00
24336;BME280;33098;52.400;16.880;2023-11-21T05:53:18;100260.46;;;5.53;100.00
24336;BME280;33098;52.400;16.880;2023-11-21T05:55:45;100262.44;;;5.50;100.00
24336;BME280;33098;52.400;16.880;2023-11-21T05:58:11;100266.48;;;5.47;100.00
24336;BME280;33098;52.400;16.880;2023-11-21T06:00:40;100271.98;;;5.40;100.00
24336;BME280;33098;52.400;16.880;2023-11-21T06:03:06;100275.88;;;5.39;100.00
24336;BME280;33098;52.400;16.880;2023-11-21T06:05:33;100283.11;;;5.39;100.00
24336;BME280;33098;52.400;16.880;2023-11-21T06:08:00;100283.25;;;5.39;100.00
24336;BME280;33098;52.400;16.880;2023-11-21T06:10:27;100286.29;;;5.39;100.00
24336;BME280;33098;52.400;16.880;2023-11-21T06:12:54;100293.16;;;5.39;100.00
24336;BME280;33098;52.400;16.880;2023-11-21T06:15:21;100306.33;;;5.36;100.00
24336;BME280;33098;52.400;16.880;2023-11-21T06:17:49;100302.35;;;5.32;100.00
24336;BME280;33098;52.400;16.880;2023-11-21T06:20:18;100312.47;;;5.37;100.00
24336;BME280;33098;52.400;16.880;2023-11-21T06:22:46;100313.19;;;5.39;100.00
24336;BME280;33098;52.400;16.880;2023-11-21T06:25:13;100318.26;;;5.40;100.00
24336;BME280;33098;52.400;16.880;2023-11-21T06:27:40;100326.83;;;5.41;100.00
24336;BME280;33098;52.400;16.880;2023-11-21T06:30:07;100329.76;;;5.39;100.00
24336;BME280;33098;52.400;16.880;2023-11-21T06:32:35;100335.71;;;5.36;100.00
24336;BME280;33098;52.400;16.880;2023-11-21T06:35:02;100337.23;;;5.34;100.00
24336;BME280;33098;52.400;16.880;2023-11-21T06:37:30;100342.96;;;5.33;100.00
24336;BME280;33098;52.400;16.880;2023-11-21T06:39:56;100345.45;;;5.32;100.00
24336;BME280;33098;52.400;16.880;2023-11-21T06:42:24;100350.06;;;5.32;100.00
24336;BME280;33098;52.400;16.880;2023-11-21T06:44:51;100357.47;;;5.29;100.00
24336;BME280;33098;52.400;16.880;2023-11-21T06:47:18;100365.51;;;5.27;100.00
24336;BME280;33098;52.400;16.880;2023-11-21T06:49:46;100366.20;;;5.27;100.00
24336;BME280;33098;52.400;16.880;2023-11-21T06:52:14;100368.80;;;5.24;100.00
24336;BME280;33098;52.400;16.880;2023-11-21T06:54:40;100368.70;;;5.23;100.00
24336;BME280;33098;52.400;16.880;2023-11-21T06:57:07;100371.06;;;5.21;100.00
24336;BME280;33098;52.400;16.880;2023-11-21T06:59:34;100373.50;;;5.22;100.00
24336;BME280;33098;52.400;16.880;2023-11-21T07:02:00;100374.52;;;5.17;100.00
24336;BME280;33098;52.400;16.880;2023-11-21T07:04:27;100377.29;;;5.11;100.00
24336;BME280;33098;52.400;16.880;2023-11-21T07:06:53;100376.77;;;5.11;100.00
24336;BME280;33098;52.400;16.880;2023-11-21T07:09:20;100377.30;;;5.07;100.00
24336;BME280;33098;52.400;16.880;2023-11-21T07:11:49;100382.95;;;5.04;100.00
24336;BME280;33098;52.400;16.880;2023-11-21T07:14:16;100382.40;;;5.01;100.00
24336;BME280;33098;52.400;16.880;2023-11-21T07:16:43;100386.44;;;5.01;100.00
24336;BME280;33098;52.400;16.880;2023-11-21T07:19:09;100391.12;;;5.03;100.00
24336;BME280;33098;52.400;16.880;2023-11-21T07:21:36;100396.64;;;5.01;100.00
24336;BME280;33098;52.400;16.880;2023-11-21T07:24:03;100400.38;;;5.01;100.00
24336;BME280;33098;52.400;16.880;2023-11-21T07:26:30;100403.33;;;5.01;100.00
24336;BME280;33098;52.400;16.880;2023-11-21T07:28:56;100409.62;;;5.02;100.00
24336;BME280;33098;52.400;16.880;2023-11-21T07:31:23;100402.24;;;5.02;100.00
24336;BME280;33098;52.400;16.880;2023-11-21T07:33:50;100408.66;;;5.00;100.00
24336;BME280;33098;52.400;16.880;2023-11-21T07:36:17;100416.84;;;5.02;100.00
24336;BME280;33098;52.400;16.880;2023-11-21T07:38:49;100422.23;;;5.00;100.00
24336;BME280;33098;52.400;16.880;2023-11-21T07:41:17;100423.27;;;4.97;100.00
24336;BME280;33098;52.400;16.880;2023-11-21T07:43:46;100421.98;;;4.98;100.00
24336;BME280;33098;52.400;16.880;2023-11-21T07:46:12;100427.83;;;4.98;100.00
24336;BME280;33098;52.400;16.880;2023-11-21T07:48:39;100427.15;;;4.97;100.00
24336;BME280;33098;52.400;16.880;2023-11-21T07:51:06;100429.10;;;4.94;100.00
24336;BME280;33098;52.400;16.880;2023-11-21T07:53:35;100432.79;;;4.81;100.00
24336;BME280;33098;52.400;16.880;2023-11-21T07:56:03;100432.44;;;4.71;100.00
24336;BME280;33098;52.400;16.880;2023-11-21T07:58:29;100434.80;;;4.63;100.00
24336;BME280;33098;52.400;16.880;2023-11-21T08:00:57;100433.06;;;4.56;100.00
24336;BME280;33098;52.400;16.880;2023-11-21T08:03:23;100438.70;;;4.53;100.00
24336;BME280;33098;52.400;16.880;2023-11-21T08:05:50;100439.23;;;4.49;100.00
24336;BME280;33098;52.400;16.880;2023-11-21T08:08:16;100440.36;;;4.44;100.00
24336;BME280;33098;52.400;16.880;2023-11-21T08:10:44;100447.70;;;4.38;100.00
24336;BME280;33098;52.400;16.880;2023-11-21T08:13:14;100452.02;;;4.26;100.00
24336;BME280;33098;52.400;16.880;2023-11-21T08:15:43;100455.42;;;4.22;100.00
24336;BME280;33098;52.400;16.880;2023-11-21T08:18:11;100450.35;;;4.25;100.00
24336;BME280;33098;52.400;16.880;2023-11-21T08:20:39;100454.65;;;4.27;100.00
24336;BME280;33098;52.400;16.880;2023-11-21T08:23:06;100451.14;;;4.30;100.00
24336;BME280;33098;52.400;16.880;2023-11-21T08:25:32;100452.64;;;4.28;100.00
24336;BME280;33098;52.400;16.880;2023-11-21T08:28:00;100456.83;;;4.22;100.00
24336;BME280;33098;52.400;16.880;2023-11-21T08:30:27;100459.59;;;4.19;100.00
24336;BME280;33098;52.400;16.880;2023-11-21T08:32:56;100465.27;;;4.15;100.00
24336;BME280;33098;52.400;16.880;2023-11-21T08:35:24;100467.64;;;4.14;100.00
24336;BME280;33098;52.400;16.880;2023-11-21T08:37:51;100471.35;;;4.13;100.00
24336;BME280;33098;52.400;16.880;2023-11-21T08:40:17;100477.20;;;4.15;100.00
24336;BME280;33098;52.400;16.880;2023-11-21T08:42:44;100487.55;;;4.19;100.00
24336;BME280;33098;52.400;16.880;2023-11-21T08:45:12;100490.04;;;4.22;100.00
24336;BME280;33098;52.400;16.880;2023-11-21T08:47:39;100495.77;;;4.20;100.00
24336;BME280;33098;52.400;16.880;2023-11-21T08:50:06;100499.02;;;4.18;100.00
24336;BME280;33098;52.400;16.880;2023-11-21T08:52:34;100496.59;;;4.21;100.00
24336;BME280;33098;52.400;16.880;2023-11-21T08:55:00;100503.85;;;4.23;100.00
24336;BME280;33098;52.400;16.880;2023-11-21T08:57:34;100504.71;;;4.23;100.00
24336;BME280;33098;52.400;16.880;2023-11-21T09:00:03;100507.40;;;4.19;100.00
24336;BME280;33098;52.400;16.880;2023-11-21T09:02:31;100508.02;;;4.17;100.00
24336;BME280;33098;52.400;16.880;2023-11-21T09:04:58;100514.41;;;4.22;100.00
24336;BME280;33098;52.400;16.880;2023-11-21T09:07:25;100516.44;;;4.31;100.00
24336;BME280;33098;52.400;16.880;2023-11-21T09:09:51;100515.48;;;4.39;100.00
24336;BME280;33098;52.400;16.880;2023-11-21T09:12:18;100516.31;;;4.47;100.00
24336;BME280;33098;52.400;16.880;2023-11-21T09:14:45;100517.29;;;4.49;100.00
24336;BME280;33098;52.400;16.880;2023-11-21T09:17:12;100520.09;;;4.52;100.00
24336;BME280;33098;52.400;16.880;2023-11-21T09:19:38;100520.86;;;4.58;100.00
24336;BME280;33098;52.400;16.880;2023-11-21T09:22:04;100524.97;;;4.60;100.00
24336;BME280;33098;52.400;16.880;2023-11-21T09:24:31;100527.31;;;4.55;100.00
24336;BME280;33098;52.400;16.880;2023-11-21T09:26:58;100527.07;;;4.56;100.00
24336;BME280;33098;52.400;16.880;2023-11-21T09:29:26;100526.84;;;4.61;100.00
24336;BME280;33098;52.400;16.880;2023-11-21T09:31:53;100530.44;;;4.63;100.00
24336;BME280;33098;52.400;16.880;2023-11-21T09:34:21;100535.40;;;4.65;100.00
24336;BME280;33098;52.400;16.880;2023-11-21T09:36:47;100537.15;;;4.69;100.00
24336;BME280;33098;52.400;16.880;2023-11-21T09:39:14;100535.13;;;4.70;100.00
24336;BME280;33098;52.400;16.880;2023-11-21T09:41:50;100532.79;;;4.72;100.00
24336;BME280;33098;52.400;16.880;2023-11-21T09:44:18;100535.69;;;4.70;100.00
24336;BME280;33098;52.400;16.880;2023-11-21T09:46:47;100537.79;;;4.70;100.00
24336;BME280;33098;52.400;16.880;2023-11-21T09:49:14;100537.26;;;4.67;100.00
24336;BME280;33098;52.400;16.880;2023-11-21T09:51:44;100540.66;;;4.63;100.00
24336;BME280;33098;52.400;16.880;2023-11-21T09:54:11;100540.30;;;4.63;100.00
24336;BME280;33098;52.400;16.880;2023-11-21T09:56:37;100540.91;;;4.64;100.00
24336;BME280;33098;52.400;16.880;2023-11-21T09:59:04;100544.83;;;4.64;100.00
24336;BME280;33098;52.400;16.880;2023-11-21T10:01:34;100549.78;;;4.59;100.00
24336;BME280;33098;52.400;16.880;2023-11-21T10:04:02;100553.52;;;4.55;100.00
24336;BME280;33098;52.400;16.880;2023-11-21T10:06:28;100562.02;;;4.54;100.00
24336;BME280;33098;52.400;16.880;2023-11-21T10:08:56;100565.73;;;4.50;100.00
24336;BME280;33098;52.400;16.880;2023-11-21T10:11:24;100560.07;;;4.44;100.00
24336;BME280;33098;52.400;16.880;2023-11-21T10:13:54;100563.79;;;4.36;100.00
24336;BME280;33098;52.400;16.880;2023-11-21T10:16:24;100566.30;;;4.39;100.00
24336;BME280;33098;52.400;16.880;2023-11-21T10:18:52;100566.35;;;4.41;100.00
24336;BME280;33098;52.400;16.880;2023-11-21T10:21:19;100566.16;;;4.41;100.00
24336;BME280;33098;52.400;16.880;2023-11-21T10:23:46;100565.21;;;4.39;100.00
24336;BME280;33098;52.400;16.880;2023-11-21T10:26:13;100566.11;;;4.39;100.00
24336;BME280;33098;52.400;16.880;2023-11-21T10:28:58;100563.05;;;4.40;100.00
24336;BME280;33098;52.400;16.880;2023-11-21T10:31:26;100568.84;;;4.40;100.00
24336;BME280;33098;52.400;16.880;2023-11-21T10:33:53;100571.21;;;4.39;100.00
24336;BME280;33098;52.400;16.880;2023-11-21T10:36:27;100573.90;;;4.38;100.00
24336;BME280;33098;52.400;16.880;2023-11-21T10:38:54;100579.21;;;4.40;100.00
24336;BME280;33098;52.400;16.880;2023-11-21T10:41:20;100577.44;;;4.41;100.00
24336;BME280;33098;52.400;16.880;2023-11-21T10:43:47;100578.10;;;4.46;100.00
24336;BME280;33098;52.400;16.880;2023-11-21T10:46:14;100575.11;;;4.49;100.00
24336;BME280;33098;52.400;16.880;2023-11-21T10:48:41;100578.02;;;4.53;100.00
24336;BME280;33098;52.400;16.880;2023-11-21T10:51:08;100576.79;;;4.57;100.00
24336;BME280;33098;52.400;16.880;2023-11-21T10:53:38;100581.70;;;4.57;100.00
24336;BME280;33098;52.400;16.880;2023-11-21T10:56:05;100578.71;;;4.61;100.00
24336;BME280;33098;52.400;16.880;2023-11-21T10:58:43;100575.38;;;4.64;100.00
24336;BME280;33098;52.400;16.880;2023-11-21T11:01:10;100578.92;;;4.63;100.00
24336;BME280;33098;52.400;16.880;2023-11-21T11:03:41;100584.16;;;4.68;100.00
24336;BME280;33098;52.400;16.880;2023-11-21T11:06:07;100592.07;;;4.75;100.00
24336;BME280;33098;52.400;16.880;2023-11-21T11:08:38;100597.31;;;4.75;100.00
24336;BME280;33098;52.400;16.880;2023-11-21T11:11:06;100590.21;;;4.77;100.00
24336;BME280;33098;52.400;16.880;2023-11-21T11:13:32;100601.02;;;4.71;100.00
24336;BME280;33098;52.400;16.880;2023-11-21T11:15:59;100604.41;;;4.63;100.00
24336;BME280;33098;52.400;16.880;2023-11-21T11:18:30;100601.91;;;4.61;100.00
24336;BME280;33098;52.400;16.880;2023-11-21T11:21:07;100603.23;;;4.59;100.00
24336;BME280;33098;52.400;16.880;2023-11-21T11:23:46;100613.23;;;4.56;100.00
24336;BME280;33098;52.400;16.880;2023-11-21T11:29:23;100607.35;;;4.54;100.00
24336;BME280;33098;52.400;16.880;2023-11-21T11:34:46;100614.89;;;4.47;100.00
24336;BME280;33098;52.400;16.880;2023-11-21T11:37:16;100616.48;;;4.44;100.00
24336;BME280;33098;52.400;16.880;2023-11-21T11:39:42;100619.23;;;4.46;100.00
24336;BME280;33098;52.400;16.880;2023-11-21T11:42:13;100625.75;;;4.48;100.00
24336;BME280;33098;52.400;16.880;2023-11-21T11:47:13;100643.88;;;4.48;100.00
24336;BME280;33098;52.400;16.880;2023-11-21T11:52:51;100656.73;;;4.37;100.00
24336;BME280;33098;52.400;16.880;2023-11-21T11:55:19;100659.20;;;4.33;100.00
24336;BME280;33098;52.400;16.880;2023-11-21T11:57:47;100660.27;;;4.33;100.00
24336;BME280;33098;52.400;16.880;2023-11-21T12:00:18;100665.71;;;4.33;100.00
24336;BME280;33098;52.400;16.880;2023-11-21T12:02:51;100674.53;;;4.31;100.00
24336;BME280;33098;52.400;16.880;2023-11-21T12:05:19;100678.82;;;4.30;100.00
24336;BME280;33098;52.400;16.880;2023-11-21T12:10:15;100682.30;;;4.34;100.00
24336;BME280;33098;52.400;16.880;2023-11-21T12:12:47;100683.09;;;4.33;100.00
24336;BME280;33098;52.400;16.880;2023-11-21T12:15:14;100679.63;;;4.32;100.00
24336;BME280;33098;52.400;16.880;2023-11-21T12:17:41;100685.66;;;4.27;100.00
24336;BME280;33098;52.400;16.880;2023-11-21T12:20:08;100684.41;;;4.24;100.00
24336;BME280;33098;52.400;16.880;2023-11-21T12:22:44;100690.41;;;4.23;100.00
24336;BME280;33098;52.400;16.880;2023-11-21T12:27:48;100685.37;;;4.19;100.00
24336;BME280;33098;52.400;16.880;2023-11-21T12:30:19;100684.92;;;4.17;100.00
24336;BME280;33098;52.400;16.880;2023-11-21T12:32:52;100689.02;;;4.16;100.00
24336;BME280;33098;52.400;16.880;2023-11-21T12:35:19;100688.11;;;4.13;100.00
24336;BME280;33098;52.400;16.880;2023-11-21T12:37:47;100690.94;;;4.13;100.00
24336;BME280;33098;52.400;16.880;2023-11-21T12:40:15;100694.57;;;4.14;100.00
24336;BME280;33098;52.400;16.880;2023-11-21T12:42:42;100699.41;;;4.11;100.00
24336;BME280;33098;52.400;16.880;2023-11-21T12:45:10;100698.59;;;4.06;100.00
24336;BME280;33098;52.400;16.880;2023-11-21T12:47:47;100702.66;;;4.02;100.00
24336;BME280;33098;52.400;16.880;2023-11-21T12:50:14;100705.54;;;3.97;100.00
24336;BME280;33098;52.400;16.880;2023-11-21T12:52:41;100708.05;;;3.95;100.00
24336;BME280;33098;52.400;16.880;2023-11-21T12:55:10;100710.09;;;3.93;100.00
24336;BME280;33098;52.400;16.880;2023-11-21T12:57:41;100711.22;;;3.88;100.00
24336;BME280;33098;52.400;16.880;2023-11-21T13:00:09;100711.59;;;3.87;100.00